createdAt,value
2018-06-21T00:00:57.812Z,57.90
2018-06-21T00:06:01.522Z,57.60
2018-06-21T00:11:05.339Z,57.50
2018-06-21T00:16:09.364Z,57.90
2018-06-21T00:21:15.197Z,58.60
2018-06-21T00:26:18.862Z,59.30
2018-06-21T00:31:22.897Z,59.40
2018-06-21T00:36:26.574Z,59.70
2018-06-21T00:41:31.791Z,60.10
2018-06-21T00:46:35.796Z,60.90
2018-06-21T00:51:39.740Z,61.60
2018-06-21T00:56:43.568Z,61.70
2018-06-21T01:01:47.322Z,62.20
2018-06-21T01:06:51.152Z,62.20
2018-06-21T01:11:54.839Z,62.80
2018-06-21T01:16:58.580Z,63.40
2018-06-21T01:22:02.310Z,63.70
2018-06-21T01:27:06.024Z,64.20
2018-06-21T01:32:09.928Z,63.70
2018-06-21T01:37:13.694Z,63.80
2018-06-21T01:42:17.434Z,64.60
2018-06-21T01:47:21.214Z,63.90
2018-06-21T01:52:29.735Z,64.60
2018-06-21T01:57:34.393Z,65.00
2018-06-21T02:02:38.235Z,65.50
2018-06-21T02:07:41.889Z,65.80
2018-06-21T02:12:45.585Z,65.60
2018-06-21T02:17:49.268Z,65.50
2018-06-21T02:22:52.898Z,66.50
2018-06-21T02:27:58.461Z,65.90
2018-06-21T02:33:02.440Z,66.20
2018-06-21T02:38:06.150Z,65.80
2018-06-21T02:43:09.782Z,66.30
2018-06-21T02:48:13.450Z,66.00
2018-06-21T02:53:17.103Z,66.10
2018-06-21T02:58:20.881Z,66.60
2018-06-21T03:03:24.597Z,66.70
2018-06-21T03:08:28.609Z,67.80
2018-06-21T03:13:32.271Z,66.70
2018-06-21T03:18:36.158Z,66.70
2018-06-21T03:23:39.803Z,67.10
2018-06-21T03:28:45.092Z,66.90
2018-06-21T03:33:49.104Z,66.80
2018-06-21T03:38:53.637Z,67.30
2018-06-21T03:43:57.268Z,68.10
2018-06-21T03:49:02.179Z,68.40
2018-06-21T03:54:06.000Z,68.40
2018-06-21T03:59:09.676Z,68.40
2018-06-21T04:09:24.732Z,68.50
2018-06-21T04:14:28.385Z,68.50
2018-06-21T04:19:32.304Z,68.00
2018-06-21T04:24:36.810Z,68.20
2018-06-21T04:34:44.052Z,68.00
2018-06-21T04:39:48.023Z,68.10
2018-06-21T04:44:51.879Z,68.40
2018-06-21T04:49:55.565Z,68.40
2018-06-21T04:54:59.908Z,68.60
2018-06-21T05:00:04.765Z,68.10
2018-06-21T05:05:09.023Z,67.50
2018-06-21T05:10:13.440Z,68.20
2018-06-21T05:15:17.352Z,68.30
2018-06-21T05:20:21.011Z,67.30
2018-06-21T05:25:24.959Z,67.10
2018-06-21T05:30:28.737Z,66.60
2018-06-21T05:35:32.780Z,64.70
2018-06-21T05:40:37.884Z,65.20
2018-06-21T05:45:41.526Z,64.40
2018-06-21T05:50:45.213Z,65.40
2018-06-21T05:55:48.892Z,65.10
2018-06-21T06:00:52.590Z,64.60
2018-06-21T06:05:57.676Z,65.70
2018-06-21T06:11:02.889Z,65.50
2018-06-21T06:16:06.555Z,64.80
2018-06-21T06:21:10.227Z,64.00
2018-06-21T06:26:14.090Z,62.90
2018-06-21T06:31:17.801Z,62.70
2018-06-21T06:36:22.227Z,61.90
2018-06-21T06:41:25.884Z,62.40
2018-06-21T06:46:29.533Z,62.10
2018-06-21T06:51:33.210Z,60.50
2018-06-21T06:56:37.160Z,59.90
2018-06-21T07:01:41.191Z,59.80
2018-06-21T07:11:48.159Z,60.20
2018-06-21T07:16:51.829Z,59.80
2018-06-21T07:21:55.577Z,61.20
2018-06-21T07:27:00.031Z,61.50
2018-06-21T07:32:04.497Z,60.50
2018-06-21T07:37:08.436Z,60.60
2018-06-21T07:42:12.071Z,60.00
2018-06-21T07:47:16.477Z,60.10
2018-06-21T07:52:20.136Z,60.00
2018-06-21T07:57:23.949Z,59.30
2018-06-21T08:02:27.640Z,58.20
2018-06-21T08:07:31.308Z,58.10
2018-06-21T08:12:35.029Z,57.30
2018-06-21T08:17:39.382Z,57.90
2018-06-21T08:22:44.889Z,57.50
2018-06-21T08:27:48.588Z,56.20
2018-06-21T08:32:52.280Z,55.10
2018-06-21T08:37:55.952Z,55.80
2018-06-21T08:42:59.988Z,54.60
2018-06-21T08:48:05.148Z,54.60
2018-06-21T08:53:08.808Z,54.70
2018-06-21T08:58:12.795Z,53.60
2018-06-21T09:03:16.561Z,52.70
2018-06-21T09:08:20.499Z,52.90
2018-06-21T09:13:29.424Z,52.50
2018-06-21T09:18:33.277Z,51.70
2018-06-21T09:23:36.979Z,51.90
2018-06-21T09:28:41.100Z,52.50
2018-06-21T09:33:44.856Z,51.10
2018-06-21T09:38:54.112Z,50.50
2018-06-21T09:44:04.357Z,51.20
2018-06-21T09:49:08.217Z,49.90
2018-06-21T09:54:12.150Z,48.40
2018-06-21T09:59:15.818Z,49.20
2018-06-21T10:04:22.241Z,49.10
2018-06-21T10:09:25.922Z,47.90
2018-06-21T10:14:29.595Z,48.00
2018-06-21T10:19:33.260Z,47.80
2018-06-21T10:24:37.655Z,46.90
2018-06-21T10:29:43.267Z,46.70
2018-06-21T10:34:47.051Z,46.10
2018-06-21T10:39:50.772Z,44.20
2018-06-21T10:44:54.405Z,45.40
2018-06-21T10:49:58.164Z,45.30
2018-06-21T10:55:02.380Z,44.20
2018-06-21T11:00:06.202Z,45.00
2018-06-21T11:05:09.927Z,45.00
2018-06-21T11:10:13.714Z,45.10
2018-06-21T11:15:17.495Z,45.10
2018-06-21T11:20:22.187Z,44.00
2018-06-21T11:25:27.324Z,43.30
2018-06-21T11:30:33.016Z,41.90
2018-06-21T11:35:49.460Z,41.80
2018-06-21T11:40:53.483Z,41.00
2018-06-21T11:45:57.592Z,39.70
2018-06-21T11:51:01.220Z,38.70
2018-06-21T11:56:04.980Z,38.20
2018-06-21T12:01:09.213Z,39.30
2018-06-21T12:06:13.172Z,37.40
2018-06-21T12:11:18.767Z,37.30
2018-06-21T12:16:23.606Z,35.00
2018-06-21T12:21:27.365Z,34.70
2018-06-21T12:26:31.140Z,32.50
2018-06-21T12:31:35.154Z,33.40
2018-06-21T12:36:39.848Z,32.90
2018-06-21T12:41:43.658Z,32.10
2018-06-21T12:46:47.679Z,33.20
2018-06-21T12:51:51.367Z,33.60
2018-06-21T12:56:57.528Z,31.10
2018-06-21T13:02:02.695Z,31.70
2018-06-21T13:07:06.691Z,36.70
2018-06-21T13:12:33.774Z,36.90
2018-06-21T13:17:37.428Z,37.10
2018-06-21T13:22:41.227Z,35.80
2018-06-21T13:27:45.620Z,36.40
2018-06-21T13:32:49.368Z,36.50
2018-06-21T13:37:53.416Z,37.70
2018-06-21T13:42:57.124Z,35.10
2018-06-21T13:48:01.462Z,35.50
2018-06-21T13:53:05.496Z,35.20
2018-06-21T13:58:09.147Z,34.00
2018-06-21T14:03:13.237Z,33.80
2018-06-21T14:08:19.193Z,34.60
2018-06-21T14:13:24.012Z,34.30
2018-06-21T14:18:27.759Z,33.20
2018-06-21T14:23:33.376Z,34.40
2018-06-21T14:28:37.430Z,34.70
2018-06-21T14:33:41.085Z,36.80
2018-06-21T14:43:52.025Z,33.30
2018-06-21T14:48:58.834Z,33.50
2018-06-21T14:54:05.088Z,32.10
2018-06-21T14:59:11.829Z,33.60
2018-06-21T15:04:19.226Z,33.50
2018-06-21T15:09:26.197Z,32.20
2018-06-21T15:14:52.294Z,31.90
2018-06-21T15:19:59.128Z,32.00
2018-06-21T15:25:05.987Z,32.40
2018-06-21T15:30:12.617Z,33.10
2018-06-21T15:35:21.318Z,32.40
2018-06-21T15:40:31.594Z,30.60
2018-06-21T15:45:38.809Z,31.50
2018-06-21T15:50:46.896Z,32.20
2018-06-21T15:55:58.368Z,32.60
2018-06-21T16:01:06.013Z,32.20
2018-06-21T16:06:12.923Z,31.20
2018-06-21T16:11:19.156Z,30.80
2018-06-21T16:16:25.710Z,30.60
2018-06-21T16:21:35.694Z,32.00
2018-06-21T16:26:42.468Z,31.50
2018-06-21T16:31:50.034Z,32.10
2018-06-21T16:36:53.805Z,31.90
2018-06-21T16:41:57.476Z,32.30
2018-06-21T16:47:01.140Z,32.50
2018-06-21T16:52:05.989Z,32.80
2018-06-21T16:57:12.002Z,32.90
2018-06-21T17:02:17.077Z,33.40
2018-06-21T17:07:22.244Z,33.70
2018-06-21T17:12:27.316Z,33.10
2018-06-21T17:17:34.361Z,34.00
2018-06-21T17:22:39.594Z,34.60
2018-06-21T17:27:45.615Z,35.10
2018-06-21T17:32:53.430Z,35.90
2018-06-21T17:37:59.849Z,36.50
2018-06-21T17:43:06.645Z,36.80
2018-06-21T17:48:14.125Z,37.40
2018-06-21T17:53:22.032Z,38.10
2018-06-21T17:58:31.133Z,38.70
2018-06-21T18:03:38.052Z,38.90
2018-06-21T18:08:45.698Z,39.30
2018-06-21T18:13:52.798Z,39.80
2018-06-21T18:19:00.234Z,39.90
2018-06-21T18:24:09.771Z,40.40
2018-06-21T18:29:16.435Z,40.40
2018-06-21T18:34:23.983Z,40.00
2018-06-21T18:39:31.774Z,40.50
2018-06-21T18:44:39.745Z,41.10
2018-06-21T18:49:45.613Z,41.00
2018-06-21T18:54:51.664Z,41.30
2018-06-21T18:59:55.664Z,42.00
2018-06-21T19:04:59.422Z,42.10
2018-06-21T19:10:08.493Z,42.20
2018-06-21T19:15:12.325Z,42.20
2018-06-21T19:20:16.174Z,42.20
2018-06-21T19:25:20.368Z,42.50
2018-06-21T19:30:24.061Z,43.00
2018-06-21T19:35:27.822Z,43.40
2018-06-21T19:45:36.326Z,43.00
2018-06-21T19:50:40.483Z,42.90
2018-06-21T19:55:44.405Z,43.20
2018-06-21T20:00:48.284Z,43.50
2018-06-21T20:05:52.696Z,43.00
2018-06-21T20:11:01.738Z,42.60
2018-06-21T20:16:05.477Z,42.40
2018-06-21T20:21:14.644Z,42.20
2018-06-21T20:26:19.135Z,42.70
2018-06-21T20:31:38.301Z,42.40
2018-06-21T20:36:42.129Z,42.50
2018-06-21T20:41:45.801Z,42.50
2018-06-21T20:46:50.000Z,41.80
2018-06-21T20:51:53.724Z,41.00
2018-06-21T20:56:59.240Z,40.90
2018-06-21T21:02:03.369Z,40.60
2018-06-21T21:07:07.051Z,40.60
2018-06-21T21:12:11.499Z,40.60
2018-06-21T21:17:15.474Z,40.20
2018-06-21T21:22:19.312Z,40.40
2018-06-21T21:27:23.620Z,40.30
2018-06-21T21:32:28.181Z,40.60
2018-06-21T21:37:31.939Z,39.30
2018-06-21T21:42:37.286Z,38.40
2018-06-21T21:47:40.956Z,37.20
2018-06-21T21:52:44.741Z,35.70
2018-06-21T21:57:48.688Z,35.20
2018-06-21T22:02:52.325Z,34.80
2018-06-21T22:07:56.053Z,33.90
2018-06-21T22:12:59.725Z,33.90
2018-06-21T22:18:03.524Z,33.10
2018-06-21T22:23:07.583Z,33.70
2018-06-21T22:28:11.764Z,33.50
2018-06-21T22:33:16.357Z,33.10
2018-06-21T22:38:20.619Z,33.30
2018-06-21T22:43:24.842Z,32.80
2018-06-21T22:48:28.673Z,32.90
2018-06-21T22:53:32.377Z,32.50
2018-06-21T22:58:36.145Z,31.40
2018-06-21T23:03:39.850Z,31.40
2018-06-21T23:08:43.527Z,31.10
2018-06-21T23:13:48.456Z,31.80
2018-06-21T23:24:00.966Z,32.10
2018-06-21T23:29:04.783Z,31.70
2018-06-21T23:34:08.587Z,31.00
2018-06-21T23:39:12.956Z,31.80
2018-06-21T23:44:16.650Z,31.60
2018-06-21T23:49:21.565Z,32.00
2018-06-21T23:54:25.332Z,31.90
2018-06-21T23:59:29.013Z,32.80
